createdAt,value
2022-08-05T00:02:11.551Z,10.10
2022-08-05T00:04:40.287Z,10.80
2022-08-05T00:07:21.720Z,10.80
2022-08-05T00:09:54.585Z,10.80
2022-08-05T00:12:22.200Z,11.50
2022-08-05T00:14:51.672Z,10.40
2022-08-05T00:17:19.439Z,10.40
2022-08-05T00:20:02.239Z,11.10
2022-08-05T00:22:31.015Z,10.70
2022-08-05T00:24:58.457Z,10.60
2022-08-05T00:27:28.370Z,10.70
2022-08-05T00:30:03.384Z,10.60
2022-08-05T00:32:30.465Z,10.30
2022-08-05T00:35:06.881Z,10.80
2022-08-05T00:37:51.376Z,11.80
2022-08-05T00:40:28.485Z,10.40
2022-08-05T00:42:58.351Z,11.00
2022-08-05T00:45:37.918Z,10.80
2022-08-05T00:48:09.187Z,10.70
2022-08-05T00:50:38.064Z,10.60
2022-08-05T00:53:09.507Z,11.70
2022-08-05T00:55:52.780Z,10.70
2022-08-05T00:58:19.629Z,11.30
2022-08-05T01:00:46.750Z,11.10
2022-08-05T01:03:22.814Z,10.00
2022-08-05T01:05:54.680Z,11.40
2022-08-05T01:08:42.111Z,11.00
2022-08-05T01:11:22.074Z,11.10
2022-08-05T01:14:15.267Z,11.10
2022-08-05T01:17:00.436Z,11.00
2022-08-05T01:20:00.976Z,12.30
2022-08-05T01:22:32.434Z,11.90
2022-08-05T01:25:39.890Z,11.70
2022-08-05T01:28:27.054Z,11.50
2022-08-05T01:31:08.857Z,11.50
2022-08-05T01:33:49.260Z,11.70
2022-08-05T01:36:21.088Z,11.90
2022-08-05T01:38:55.801Z,11.50
2022-08-05T01:41:25.696Z,12.40
2022-08-05T01:43:52.994Z,12.10
2022-08-05T01:46:42.810Z,11.30
2022-08-05T01:49:23.181Z,11.70
2022-08-05T01:51:55.277Z,12.30
2022-08-05T01:54:25.733Z,12.10
2022-08-05T01:58:09.432Z,11.80
2022-08-05T01:59:41.481Z,11.90
2022-08-05T02:02:14.598Z,12.10
2022-08-05T02:04:43.647Z,12.70
2022-08-05T02:07:22.082Z,12.80
2022-08-05T02:09:51.000Z,11.80
2022-08-05T02:12:38.790Z,12.90
2022-08-05T02:15:17.329Z,12.70
2022-08-05T02:18:27.730Z,11.80
2022-08-05T02:20:50.590Z,12.80
2022-08-05T02:23:18.706Z,12.70
2022-08-05T02:25:49.267Z,13.40
2022-08-05T02:28:29.195Z,13.30
2022-08-05T02:31:14.708Z,13.40
2022-08-05T02:33:48.538Z,12.90
2022-08-05T02:36:17.170Z,12.80
2022-08-05T02:38:53.447Z,13.30
2022-08-05T02:41:22.936Z,13.00
2022-08-05T02:44:05.932Z,12.80
2022-08-05T02:46:53.323Z,13.50
2022-08-05T02:49:24.355Z,12.50
2022-08-05T02:52:03.917Z,13.80
2022-08-05T02:54:34.927Z,13.00
2022-08-05T02:57:10.311Z,13.60
2022-08-05T03:02:24.864Z,12.40
2022-08-05T03:04:55.168Z,13.50
2022-08-05T03:08:00.612Z,13.30
2022-08-05T03:10:10.164Z,12.70
2022-08-05T03:12:38.641Z,14.00
2022-08-05T03:15:09.329Z,12.80
2022-08-05T03:17:41.479Z,14.20
2022-08-05T03:20:10.399Z,13.70
2022-08-05T03:22:37.497Z,14.50
2022-08-05T03:25:33.175Z,14.20
2022-08-05T03:28:00.360Z,16.30
2022-08-05T03:30:33.751Z,19.10
2022-08-05T03:33:06.311Z,25.90
2022-08-05T03:35:40.981Z,27.00
2022-08-05T03:38:11.198Z,19.60
2022-08-05T03:40:47.209Z,16.90
2022-08-05T03:44:08.930Z,15.10
2022-08-05T03:46:03.488Z,15.60
2022-08-05T03:48:30.637Z,15.00
2022-08-05T03:52:48.982Z,16.40
2022-08-05T03:56:01.369Z,14.60
2022-08-05T03:56:51.691Z,15.70
2022-08-05T03:59:24.548Z,14.80
2022-08-05T04:01:52.359Z,15.10
2022-08-05T04:04:21.223Z,15.50
2022-08-05T04:06:51.102Z,14.60
2022-08-05T04:09:26.113Z,15.70
2022-08-05T04:11:56.876Z,15.60
2022-08-05T04:14:30.437Z,16.30
2022-08-05T04:16:59.713Z,15.50
2022-08-05T04:19:28.612Z,16.60
2022-08-05T04:22:08.896Z,15.40
2022-08-05T04:24:44.189Z,16.00
2022-08-05T04:27:13.521Z,15.60
2022-08-05T04:29:41.214Z,16.00
2022-08-05T04:32:08.647Z,16.10
2022-08-05T04:34:39.652Z,16.00
2022-08-05T04:37:11.423Z,15.90
2022-08-05T04:39:40.100Z,15.50
2022-08-05T04:42:07.537Z,16.70
2022-08-05T04:44:35.965Z,15.40
2022-08-05T04:47:08.975Z,15.40
2022-08-05T04:50:03.003Z,15.70
2022-08-05T04:52:27.421Z,16.00
2022-08-05T04:54:57.364Z,14.90
2022-08-05T04:57:28.693Z,16.00
2022-08-05T04:59:58.435Z,14.90
2022-08-05T05:02:41.997Z,14.80
2022-08-05T05:05:16.681Z,14.50
2022-08-05T05:08:01.082Z,13.30
2022-08-05T05:10:55.779Z,13.70
2022-08-05T05:13:24.024Z,14.30
2022-08-05T05:15:57.319Z,14.50
2022-08-05T05:18:33.079Z,15.80
2022-08-05T05:21:03.072Z,15.00
2022-08-05T05:24:02.189Z,14.50
2022-08-05T05:26:18.749Z,14.30
2022-08-05T05:28:45.693Z,15.10
2022-08-05T05:31:13.148Z,16.20
2022-08-05T05:33:59.696Z,14.80
2022-08-05T05:36:28.821Z,14.60
2022-08-05T05:38:57.493Z,14.80
2022-08-05T05:41:24.687Z,14.40
2022-08-05T05:43:58.410Z,14.60
2022-08-05T05:46:27.696Z,14.00
2022-08-05T05:48:55.054Z,14.10
2022-08-05T05:51:23.648Z,14.00
2022-08-05T05:53:57.671Z,13.40
2022-08-05T05:56:32.452Z,13.90
2022-08-05T05:59:03.163Z,13.70
2022-08-05T06:01:37.715Z,13.10
2022-08-05T06:04:12.188Z,13.70
2022-08-05T06:06:41.741Z,13.60
2022-08-05T06:09:09.148Z,13.50
2022-08-05T06:11:59.589Z,14.10
2022-08-05T06:14:30.974Z,13.60
2022-08-05T06:16:58.580Z,12.70
2022-08-05T06:19:34.844Z,13.70
2022-08-05T06:22:03.973Z,12.90
2022-08-05T06:24:32.195Z,13.90
2022-08-05T06:26:59.768Z,15.00
2022-08-05T06:29:48.145Z,14.20
2022-08-05T06:32:24.921Z,16.50
2022-08-05T06:34:58.378Z,37.00
2022-08-05T06:37:57.286Z,16.80
2022-08-05T06:40:18.399Z,20.40
2022-08-05T06:42:51.631Z,12.50
2022-08-05T06:45:21.244Z,12.60
2022-08-05T06:48:36.147Z,12.80
2022-08-05T06:50:54.415Z,12.80
2022-08-05T06:53:27.617Z,12.30
2022-08-05T06:56:00.109Z,11.60
2022-08-05T06:58:29.959Z,12.00
2022-08-05T07:01:03.607Z,12.10
2022-08-05T07:03:32.522Z,11.70
2022-08-05T07:06:06.293Z,12.40
2022-08-05T07:08:47.598Z,14.00
2022-08-05T07:11:22.109Z,12.90
2022-08-05T07:14:15.504Z,11.80
2022-08-05T07:17:58.330Z,15.30
2022-08-05T07:22:28.646Z,12.00
2022-08-05T07:25:22.064Z,20.20
2022-08-05T07:27:58.606Z,10.60
2022-08-05T07:30:32.607Z,10.60
2022-08-05T07:33:09.491Z,11.20
2022-08-05T07:36:01.876Z,10.50
2022-08-05T07:38:34.420Z,10.20
2022-08-05T07:42:07.063Z,10.00
2022-08-05T07:43:56.548Z,9.40
2022-08-05T07:46:26.206Z,9.30
2022-08-05T07:49:03.591Z,8.90
2022-08-05T07:51:36.723Z,9.50
2022-08-05T07:54:09.702Z,8.60
2022-08-05T07:57:00.202Z,8.90
2022-08-05T07:59:38.244Z,9.40
2022-08-05T08:02:15.492Z,9.50
2022-08-05T08:05:53.680Z,9.70
2022-08-05T13:49:46.462Z,5.40
2022-08-05T13:52:29.147Z,5.50
2022-08-05T13:54:57.289Z,5.00
2022-08-05T13:57:48.586Z,4.60
2022-08-05T14:00:15.141Z,4.90
2022-08-05T14:02:44.585Z,5.10
2022-08-05T14:05:15.383Z,5.20
2022-08-05T14:07:59.965Z,4.80
2022-08-05T14:10:33.236Z,4.10
2022-08-05T14:13:00.280Z,4.40
2022-08-05T14:16:07.266Z,4.30
2022-08-05T14:18:18.372Z,4.70
2022-08-05T14:20:54.362Z,4.30
2022-08-05T14:23:25.603Z,4.60
2022-08-05T14:25:58.246Z,4.50
2022-08-05T14:28:30.348Z,4.40
2022-08-05T14:30:58.356Z,4.60
2022-08-05T14:33:25.613Z,4.80
2022-08-05T14:35:54.530Z,4.40
2022-08-05T14:38:31.663Z,4.70
2022-08-05T14:43:59.392Z,4.70
2022-08-05T14:46:28.031Z,5.40
2022-08-05T14:49:06.569Z,5.40
2022-08-05T14:51:42.588Z,5.80
2022-08-05T14:54:28.048Z,5.70
2022-08-05T14:56:58.921Z,6.10
2022-08-05T14:59:29.640Z,5.20
2022-08-05T15:02:03.496Z,6.60
2022-08-05T15:04:43.404Z,6.40
2022-08-05T15:07:12.028Z,6.90
2022-08-05T15:10:01.598Z,6.60
2022-08-05T15:12:45.671Z,6.40
2022-08-05T15:15:17.404Z,7.00
2022-08-05T15:18:05.849Z,6.50
2022-08-05T15:20:33.071Z,7.10
2022-08-05T15:23:07.472Z,7.10
2022-08-05T15:25:41.062Z,7.30
2022-08-05T15:28:20.250Z,7.60
2022-08-05T15:30:53.066Z,7.00
2022-08-05T15:34:05.170Z,7.60
2022-08-05T15:36:16.874Z,6.80
2022-08-05T15:38:44.946Z,6.30
2022-08-05T15:41:23.102Z,7.10
2022-08-05T15:43:52.366Z,6.90
2022-08-05T15:46:24.104Z,6.70
2022-08-05T15:48:58.664Z,7.60
2022-08-05T15:52:13.742Z,7.50
2022-08-05T15:54:15.770Z,6.80
2022-08-05T15:56:43.683Z,6.20
2022-08-05T15:59:21.774Z,6.90
2022-08-05T16:01:52.247Z,6.20
2022-08-05T16:04:25.353Z,6.00
2022-08-05T16:06:56.166Z,5.40
2022-08-05T16:09:24.446Z,5.90
2022-08-05T16:11:53.200Z,6.20
2022-08-05T16:14:24.710Z,5.70
2022-08-05T16:16:51.760Z,5.60
2022-08-05T16:20:02.932Z,6.60
2022-08-05T16:22:06.692Z,6.50
2022-08-05T16:24:41.548Z,5.80
2022-08-05T16:27:18.871Z,5.60
2022-08-05T16:29:50.151Z,5.90
2022-08-05T16:32:23.226Z,5.70
2022-08-05T16:34:55.511Z,5.80
2022-08-05T16:38:02.549Z,5.40
2022-08-05T16:40:25.016Z,6.40
2022-08-05T16:42:56.281Z,6.00
2022-08-05T16:46:03.965Z,5.60
2022-08-05T16:48:10.527Z,5.50
2022-08-05T16:50:37.867Z,6.10
2022-08-05T16:53:11.923Z,6.30
2022-08-05T16:55:46.951Z,9.10
2022-08-05T16:58:14.595Z,6.40
2022-08-05T17:00:48.177Z,6.10
2022-08-05T17:03:20.538Z,5.40
2022-08-05T17:05:53.603Z,5.50
2022-08-05T17:08:36.072Z,6.30
2022-08-05T17:11:12.710Z,5.30
2022-08-05T17:13:45.651Z,5.60
2022-08-05T17:16:33.145Z,5.90
2022-08-05T17:19:00.812Z,6.70
2022-08-05T17:21:35.735Z,5.80
2022-08-05T17:24:28.183Z,6.60
2022-08-05T17:26:57.685Z,6.70
2022-08-05T17:29:33.180Z,7.30
2022-08-05T17:32:17.193Z,6.50
2022-08-05T17:34:49.105Z,6.80
2022-08-05T17:37:40.865Z,6.60
2022-08-05T17:40:10.100Z,6.80
2022-08-05T17:42:43.039Z,6.00
2022-08-05T17:45:20.020Z,6.70
2022-08-05T17:47:53.394Z,6.00
2022-08-05T17:50:28.934Z,6.60
2022-08-05T17:53:02.961Z,7.40
2022-08-05T17:55:37.548Z,6.70
2022-08-05T17:58:12.449Z,6.80
2022-08-05T18:00:45.145Z,6.60
2022-08-05T18:06:11.512Z,6.40
2022-08-05T18:08:44.836Z,6.50
2022-08-05T18:11:23.616Z,6.60
2022-08-05T18:16:21.137Z,6.30
2022-08-05T18:18:50.157Z,6.40
2022-08-05T18:21:19.900Z,6.60
2022-08-05T18:23:53.510Z,7.80
2022-08-05T18:26:27.739Z,7.30
2022-08-05T18:28:57.488Z,8.10
2022-08-05T18:31:33.856Z,6.80
2022-08-05T18:34:06.220Z,7.00
2022-08-05T18:36:35.529Z,8.20
2022-08-05T18:39:03.787Z,7.60
2022-08-05T18:41:55.808Z,8.00
2022-08-05T18:44:33.311Z,7.20
2022-08-05T18:47:04.301Z,7.80
2022-08-05T18:49:57.813Z,7.50
2022-08-05T18:52:33.559Z,7.80
2022-08-05T18:55:05.042Z,7.30
2022-08-05T18:57:49.964Z,7.70
2022-08-05T19:00:20.374Z,6.70
2022-08-05T19:02:48.161Z,7.20
2022-08-05T19:06:05.549Z,8.10
2022-08-05T19:08:03.026Z,8.10
2022-08-05T19:10:30.699Z,8.90
2022-08-05T19:12:58.659Z,9.10
2022-08-05T19:15:59.020Z,9.50
2022-08-05T19:18:22.461Z,9.50
2022-08-05T19:20:52.400Z,9.50
2022-08-05T19:24:03.671Z,10.30
2022-08-05T19:26:09.270Z,10.20
2022-08-05T19:28:42.234Z,10.30
2022-08-05T19:31:13.262Z,10.40
2022-08-05T19:33:55.651Z,10.00
2022-08-05T19:36:25.358Z,10.20
2022-08-05T19:39:00.537Z,10.80
2022-08-05T19:42:05.341Z,10.50
2022-08-05T19:44:16.719Z,10.90
2022-08-05T19:46:45.500Z,10.80
2022-08-05T19:49:17.240Z,11.90
2022-08-05T19:52:05.860Z,10.90
2022-08-05T19:54:34.307Z,10.90
2022-08-05T19:57:06.632Z,10.50
2022-08-05T19:59:56.036Z,11.30
2022-08-05T20:02:23.570Z,12.00
2022-08-05T20:04:54.048Z,11.40
2022-08-05T20:07:45.724Z,10.80
2022-08-05T20:10:13.507Z,11.20
2022-08-05T20:12:48.012Z,11.90
2022-08-05T20:15:48.971Z,12.80
2022-08-05T20:18:09.737Z,12.30
2022-08-05T20:20:37.071Z,11.60
2022-08-05T20:23:05.654Z,12.80
2022-08-05T20:25:39.736Z,12.50
2022-08-05T20:28:08.104Z,12.90
2022-08-05T20:30:40.826Z,12.30
2022-08-05T20:33:09.002Z,12.40
2022-08-05T20:35:40.282Z,13.10
2022-08-05T20:38:20.010Z,13.70
2022-08-05T20:40:53.804Z,12.80
2022-08-05T20:43:33.403Z,13.90
2022-08-05T20:46:10.537Z,13.20
2022-08-05T20:48:45.371Z,13.00
2022-08-05T20:51:18.051Z,13.20
2022-08-05T20:53:56.772Z,12.40
2022-08-05T20:56:29.695Z,12.90
2022-08-05T20:59:00.156Z,13.30
2022-08-05T21:01:39.035Z,12.90
2022-08-05T21:04:10.847Z,13.60
2022-08-05T21:06:45.132Z,12.80
2022-08-05T21:09:14.438Z,13.40
2022-08-05T21:12:08.990Z,12.70
2022-08-05T21:14:35.300Z,13.40
2022-08-05T21:17:06.106Z,12.50
2022-08-05T21:19:46.442Z,14.50
2022-08-05T21:22:18.536Z,13.50
2022-08-05T21:24:51.577Z,13.30
2022-08-05T21:27:25.027Z,13.60
2022-08-05T21:29:55.818Z,13.00
2022-08-05T21:32:27.449Z,13.80
2022-08-05T21:35:09.032Z,12.90
2022-08-05T21:37:43.709Z,12.90
2022-08-05T21:40:14.630Z,13.40
2022-08-05T21:42:45.302Z,14.20
2022-08-05T21:45:24.979Z,13.80
2022-08-05T21:48:06.357Z,14.40
2022-08-05T21:50:33.657Z,13.70
2022-08-05T21:53:04.585Z,14.30
2022-08-05T21:56:01.576Z,13.60
2022-08-05T21:58:24.860Z,14.00
2022-08-05T22:00:59.637Z,14.80
2022-08-05T22:03:52.067Z,14.60
2022-08-05T22:06:22.449Z,15.10
2022-08-05T22:08:52.199Z,13.90
2022-08-05T22:11:35.170Z,14.30
2022-08-05T22:14:06.569Z,14.40
2022-08-05T22:16:53.024Z,14.10
2022-08-05T22:20:03.522Z,13.90
2022-08-05T22:22:10.969Z,14.50
2022-08-05T22:24:57.884Z,14.20
2022-08-05T22:28:08.539Z,13.40
2022-08-05T22:30:32.450Z,13.30
2022-08-05T22:33:04.367Z,14.60
2022-08-05T22:35:48.606Z,13.60
2022-08-05T22:38:19.722Z,14.00
2022-08-05T22:40:49.642Z,14.00
2022-08-05T22:43:37.032Z,13.90
2022-08-05T22:46:13.501Z,13.30
2022-08-05T22:48:50.610Z,14.30
2022-08-05T22:51:22.898Z,13.20
2022-08-05T22:53:57.029Z,13.50
2022-08-05T22:56:30.543Z,14.50
2022-08-05T22:59:04.142Z,13.60
2022-08-05T23:02:04.857Z,14.00
2022-08-05T23:04:34.043Z,13.00
2022-08-05T23:07:01.100Z,14.00
2022-08-05T23:09:57.251Z,14.40
2022-08-05T23:12:18.007Z,14.40
2022-08-05T23:14:45.074Z,14.20
2022-08-05T23:17:34.105Z,14.10
2022-08-05T23:20:05.693Z,13.90
2022-08-05T23:22:37.662Z,14.20
2022-08-05T23:25:05.531Z,14.30
2022-08-05T23:27:42.535Z,14.80
2022-08-05T23:30:21.547Z,13.90
2022-08-05T23:32:54.342Z,13.80
2022-08-05T23:35:21.387Z,14.00
2022-08-05T23:37:48.544Z,14.90
2022-08-05T23:40:15.557Z,14.30
2022-08-05T23:42:47.406Z,14.40
2022-08-05T23:45:20.659Z,14.80
2022-08-05T23:47:53.616Z,15.10
2022-08-05T23:50:26.605Z,14.90
2022-08-05T23:52:55.739Z,14.50
2022-08-05T23:55:24.657Z,15.20
2022-08-05T23:57:58.134Z,14.40
